Time;durP1;ratioP1;P1;durP2;ratioP2;P2;SDS_P1;SDS_P2;PMS_P1;PMS_P2;Temp;Humidity;BMP_temperature;BMP_pressure;BME280_temperature;BME280_humidity;BME280_pressure;Samples;Min_cycle;Max_cycle;Signal;HPM_P1;HPM_P2
2022/08/12 00:43:42;;;;;;;7.93;5.90;;;;;;;;;;5026081;28;20040;-77
2022/08/12 00:48:55;;;;;;;8.65;6.40;;;;;;;;;;5031748;28;20394;-76
2022/08/12 00:51:20;;;;;;;11.27;6.53;;;;;;;;;;5025351;28;20025;-77
2022/08/12 00:53:45;;;;;;;11.35;6.80;;;;;;;;;;5029638;28;20029;-76
2022/08/12 00:56:11;;;;;;;12.35;7.03;;;;;;;;;;5038723;28;20038;-77
2022/08/12 00:58:38;;;;;;;8.75;6.65;;;;;;;;;;5031048;28;20061;-77
2022/08/12 01:01:04;;;;;;;8.93;6.38;;;;;;;;;;5026845;28;20029;-75
2022/08/12 01:11:27;;;;;;;11.15;5.93;;;;;;;;;;5027536;28;20425;-74
2022/08/12 01:11:48;;;;;;;12.50;6.10;;;;;;;;;;5032336;28;20401;-75
2022/08/12 01:14:13;;;;;;;12.07;6.07;;;;;;;;;;5031685;28;20037;-77
2022/08/12 01:16:39;;;;;;;8.40;6.13;;;;;;;;;;5032141;28;20040;-78
2022/08/12 01:19:04;;;;;;;8.02;5.88;;;;;;;;;;5031611;28;20025;-76
2022/08/12 01:21:38;;;;;;;14.27;6.32;;;;;;;;;;5031498;28;20106;-74
2022/08/12 01:24:22;;;;;;;10.13;5.75;;;;;;;;;;5030869;28;20385;-77
2022/08/12 01:26:47;;;;;;;8.38;6.95;;;;;;;;;;5031271;28;20025;-80
2022/08/12 01:29:19;;;;;;;9.98;6.10;;;;;;;;;;5046600;28;20036;-76
2022/08/12 01:31:47;;;;;;;8.23;6.40;;;;;;;;;;5031447;28;20032;-78
2022/08/12 01:34:14;;;;;;;9.25;5.60;;;;;;;;;;5018871;28;20038;-77
2022/08/12 01:36:43;;;;;;;11.93;6.30;;;;;;;;;;5042459;28;20490;-74
2022/08/12 01:39:08;;;;;;;8.23;5.47;;;;;;;;;;5019558;28;20041;-77
2022/08/12 01:41:35;;;;;;;9.23;6.25;;;;;;;;;;5031318;28;20482;-76
2022/08/12 01:44:03;;;;;;;11.55;6.30;;;;;;;;;;5035087;28;20551;-76
2022/08/12 01:46:29;;;;;;;11.88;7.25;;;;;;;;;;5033770;28;20029;-74
2022/08/12 01:49:30;;;;;;;10.00;6.28;;;;;;;;;;5035247;28;20048;-79
2022/08/12 01:52:03;;;;;;;9.30;5.55;;;;;;;;;;5012773;28;20124;-78
2022/08/12 01:54:30;;;;;;;9.02;6.60;;;;;;;;;;5016048;28;20057;-78
2022/08/12 01:57:15;;;;;;;10.45;6.53;;;;;;;;;;5053478;28;20032;-75
2022/08/12 01:59:49;;;;;;;8.98;6.53;;;;;;;;;;5043863;28;20013;-75
2022/08/12 02:02:17;;;;;;;9.10;5.55;;;;;;;;;;5023400;28;20024;-76
2022/08/12 02:13:37;;;;;;;8.95;5.68;;;;;;;;;;5037244;28;20098;-79
2022/08/12 02:16:07;;;;;;;12.80;7.28;;;;;;;;;;5031649;28;20060;-74
2022/08/12 02:18:35;;;;;;;11.48;6.13;;;;;;;;;;5034779;28;20029;-79
2022/08/12 02:21:02;;;;;;;9.70;6.60;;;;;;;;;;5033996;28;20422;-78
2022/08/12 02:23:29;;;;;;;12.27;6.80;;;;;;;;;;5034008;28;20497;-78
2022/08/12 02:25:56;;;;;;;10.50;6.43;;;;;;;;;;5034822;28;20483;-79
2022/08/12 02:28:22;;;;;;;10.80;6.07;;;;;;;;;;5032383;28;20040;-74
2022/08/12 02:30:47;;;;;;;14.52;6.68;;;;;;;;;;5034782;28;20486;-77
2022/08/12 02:33:13;;;;;;;13.55;6.95;;;;;;;;;;5033385;28;20100;-77
2022/08/12 02:35:39;;;;;;;9.88;6.38;;;;;;;;;;5034275;28;20028;-76
2022/08/12 02:38:06;;;;;;;8.32;6.78;;;;;;;;;;5034142;28;20022;-75
2022/08/12 02:40:33;;;;;;;12.25;6.85;;;;;;;;;;5033945;28;20100;-76
2022/08/12 02:43:02;;;;;;;11.40;6.38;;;;;;;;;;5031926;28;20034;-77
2022/08/12 02:45:34;;;;;;;7.35;6.40;;;;;;;;;;5014747;28;20080;-75
2022/08/12 02:48:00;;;;;;;11.50;6.50;;;;;;;;;;5024344;28;20572;-77
2022/08/12 02:50:27;;;;;;;11.32;6.15;;;;;;;;;;5048432;28;20461;-74
2022/08/12 02:52:54;;;;;;;7.85;5.82;;;;;;;;;;5033319;28;20371;-77
2022/08/12 02:55:20;;;;;;;8.43;6.63;;;;;;;;;;5037590;28;20029;-75
2022/08/12 02:57:46;;;;;;;11.18;7.22;;;;;;;;;;5041622;28;20025;-79
2022/08/12 03:00:15;;;;;;;12.23;5.75;;;;;;;;;;5024944;28;20159;-76
2022/08/12 03:02:43;;;;;;;12.82;7.18;;;;;;;;;;5048854;28;20083;-75
2022/08/12 03:05:10;;;;;;;12.07;7.25;;;;;;;;;;5035007;28;20191;-75
2022/08/12 03:07:41;;;;;;;9.60;6.50;;;;;;;;;;5033592;28;20112;-75
2022/08/12 03:10:08;;;;;;;11.00;6.47;;;;;;;;;;5048619;28;20017;-74
2022/08/12 03:12:34;;;;;;;9.52;5.80;;;;;;;;;;5033101;28;20037;-75
2022/08/12 03:15:02;;;;;;;9.73;6.85;;;;;;;;;;5032965;28;20028;-77
2022/08/12 03:17:33;;;;;;;9.10;6.55;;;;;;;;;;5033713;28;20473;-77
2022/08/12 03:19:59;;;;;;;9.82;6.22;;;;;;;;;;5033523;28;20393;-77
2022/08/12 03:22:25;;;;;;;8.93;6.40;;;;;;;;;;5033372;28;20061;-75
2022/08/12 03:24:53;;;;;;;10.82;6.05;;;;;;;;;;5034653;28;20072;-74
2022/08/12 03:27:19;;;;;;;11.27;7.80;;;;;;;;;;5019312;28;20405;-78
2022/08/12 03:29:50;;;;;;;12.18;7.78;;;;;;;;;;5033398;28;20033;-78
2022/08/12 03:32:17;;;;;;;11.82;6.35;;;;;;;;;;5034238;28;20026;-78
2022/08/12 03:34:44;;;;;;;12.48;7.13;;;;;;;;;;5034044;28;20120;-75
2022/08/12 03:37:12;;;;;;;10.43;6.90;;;;;;;;;;5033480;28;20025;-75
2022/08/12 03:42:21;;;;;;;14.60;8.38;;;;;;;;;;5032792;28;20045;-78
2022/08/12 04:01:39;;;;;;;10.18;7.07;;;;;;;;;;5017146;28;20420;-78
2022/08/12 04:04:05;;;;;;;11.50;7.25;;;;;;;;;;5047585;28;20392;-76
2022/08/12 04:06:30;;;;;;;9.10;6.90;;;;;;;;;;5046544;28;20519;-78
2022/08/12 04:08:57;;;;;;;12.25;7.10;;;;;;;;;;5048218;28;20025;-76
2022/08/12 04:14:20;;;;;;;11.32;6.60;;;;;;;;;;5032216;28;20560;-75
2022/08/12 04:16:49;;;;;;;9.15;7.22;;;;;;;;;;5031781;28;20034;-74
2022/08/12 04:19:15;;;;;;;11.93;7.10;;;;;;;;;;5032707;28;20512;-76
2022/08/12 04:21:41;;;;;;;11.55;8.52;;;;;;;;;;5027330;28;20014;-75
2022/08/12 04:24:06;;;;;;;9.40;6.60;;;;;;;;;;5013144;28;20021;-78
2022/08/12 04:26:34;;;;;;;11.65;7.05;;;;;;;;;;5013022;28;20022;-78
2022/08/12 04:28:59;;;;;;;11.95;7.68;;;;;;;;;;5029367;28;20056;-75
2022/08/12 04:31:31;;;;;;;15.88;7.82;;;;;;;;;;5032182;28;20056;-75
2022/08/12 04:33:57;;;;;;;12.48;7.97;;;;;;;;;;5032377;28;20104;-76
2022/08/12 04:36:22;;;;;;;9.98;7.18;;;;;;;;;;5031032;28;20460;-75
2022/08/12 04:38:48;;;;;;;14.73;8.15;;;;;;;;;;5032341;28;20024;-76
2022/08/12 04:41:14;;;;;;;12.55;7.25;;;;;;;;;;5032016;28;20051;-76
2022/08/12 04:43:40;;;;;;;13.90;8.07;;;;;;;;;;5029097;28;20025;-74
2022/08/12 04:46:06;;;;;;;10.98;6.90;;;;;;;;;;5032103;28;20025;-75
2022/08/12 04:48:31;;;;;;;12.82;8.05;;;;;;;;;;5031220;28;20029;-75
2022/08/12 04:50:57;;;;;;;11.93;7.82;;;;;;;;;;5021016;28;20029;-78
2022/08/12 04:53:22;;;;;;;9.35;6.63;;;;;;;;;;5013301;28;20040;-77
2022/08/12 04:55:47;;;;;;;11.57;7.43;;;;;;;;;;5044905;28;20017;-75
2022/08/12 04:58:12;;;;;;;12.98;7.53;;;;;;;;;;5042785;28;20030;-78
2022/08/12 05:00:38;;;;;;;13.27;9.15;;;;;;;;;;5029196;28;20026;-74
2022/08/12 05:03:05;;;;;;;13.60;8.38;;;;;;;;;;5018663;28;20025;-74
2022/08/12 05:05:30;;;;;;;9.52;7.50;;;;;;;;;;5046540;28;20045;-77
2022/08/12 05:07:55;;;;;;;8.88;6.47;;;;;;;;;;5031453;28;20025;-77
2022/08/12 05:10:21;;;;;;;13.60;8.05;;;;;;;;;;5032327;28;20108;-74
2022/08/12 05:12:58;;;;;;;12.10;7.43;;;;;;;;;;5032288;28;20025;-73
2022/08/12 05:15:24;;;;;;;10.43;7.68;;;;;;;;;;5030974;28;20038;-73
2022/08/12 05:17:50;;;;;;;12.65;7.30;;;;;;;;;;5035230;28;20032;-74
2022/08/12 05:20:15;;;;;;;10.93;8.20;;;;;;;;;;5050689;28;20021;-74
2022/08/12 05:22:44;;;;;;;12.80;7.70;;;;;;;;;;5034922;28;20736;-76
2022/08/12 05:25:14;;;;;;;12.00;7.68;;;;;;;;;;5015500;28;20030;-77
2022/08/12 05:27:39;;;;;;;12.10;7.90;;;;;;;;;;5020537;28;20388;-75
2022/08/12 05:30:09;;;;;;;12.18;6.97;;;;;;;;;;5033970;28;20033;-78
2022/08/12 05:32:34;;;;;;;11.98;8.57;;;;;;;;;;5032704;28;20040;-74
2022/08/12 05:35:05;;;;;;;12.75;8.38;;;;;;;;;;5035869;28;20048;-74
2022/08/12 05:37:30;;;;;;;10.57;7.25;;;;;;;;;;5035215;28;20456;-74
2022/08/12 05:39:57;;;;;;;13.48;8.15;;;;;;;;;;5035180;28;20053;-74
2022/08/12 05:42:23;;;;;;;11.80;7.78;;;;;;;;;;5032947;28;20476;-79
2022/08/12 05:44:48;;;;;;;12.88;7.65;;;;;;;;;;5034983;28;20030;-76
2022/08/12 05:47:13;;;;;;;13.27;7.78;;;;;;;;;;5034526;28;20033;-74
2022/08/12 05:49:40;;;;;;;15.48;9.27;;;;;;;;;;5051041;28;20032;-76
2022/08/12 05:52:07;;;;;;;13.18;8.65;;;;;;;;;;5035823;28;20030;-75
2022/08/12 05:54:32;;;;;;;14.43;8.68;;;;;;;;;;5036854;28;20029;-78
2022/08/12 05:56:57;;;;;;;10.95;7.45;;;;;;;;;;5055505;28;20374;-78
2022/08/12 05:59:23;;;;;;;12.65;8.95;;;;;;;;;;5035569;28;20037;-78
2022/08/12 06:01:48;;;;;;;13.52;8.52;;;;;;;;;;5035246;28;20022;-79
2022/08/12 06:04:13;;;;;;;11.82;8.85;;;;;;;;;;5034661;28;20053;-79
2022/08/12 06:06:41;;;;;;;16.73;10.98;;;;;;;;;;5051156;28;20052;-77
2022/08/12 06:09:09;;;;;;;14.52;9.85;;;;;;;;;;5036083;28;20554;-78
2022/08/12 06:11:41;;;;;;;13.00;9.07;;;;;;;;;;5050615;28;20049;-77
2022/08/12 06:14:07;;;;;;;12.27;8.32;;;;;;;;;;5033900;28;20104;-77
2022/08/12 06:16:34;;;;;;;17.17;12.75;;;;;;;;;;5034905;28;20086;-73
2022/08/12 06:18:59;;;;;;;16.08;11.23;;;;;;;;;;5034046;28;20033;-77
2022/08/12 06:21:24;;;;;;;17.90;9.25;;;;;;;;;;5034864;28;20025;-75
2022/08/12 06:23:50;;;;;;;20.63;10.97;;;;;;;;;;5035144;28;20034;-78
2022/08/12 06:26:19;;;;;;;17.05;9.63;;;;;;;;;;5034838;28;20501;-75
2022/08/12 06:28:44;;;;;;;16.33;10.55;;;;;;;;;;5033065;28;20025;-77
2022/08/12 06:31:15;;;;;;;14.35;9.98;;;;;;;;;;5033728;28;20029;-75
2022/08/12 06:33:43;;;;;;;12.05;7.95;;;;;;;;;;5034405;28;20112;-78
2022/08/12 06:36:09;;;;;;;17.52;9.93;;;;;;;;;;5035339;28;20030;-78
2022/08/12 06:38:35;;;;;;;19.35;11.15;;;;;;;;;;5032718;28;20021;-74
2022/08/12 06:43:45;;;;;;;19.02;10.63;;;;;;;;;;5027421;28;20049;-78
2022/08/12 06:46:12;;;;;;;16.05;8.98;;;;;;;;;;5034738;28;20013;-73
2022/08/12 06:48:40;;;;;;;20.63;10.20;;;;;;;;;;5034228;28;20025;-78
2022/08/12 06:51:07;;;;;;;20.08;10.63;;;;;;;;;;5045569;28;20022;-75
2022/08/12 06:53:32;;;;;;;19.38;11.25;;;;;;;;;;5014197;28;20033;-75
2022/08/12 06:55:59;;;;;;;15.23;10.88;;;;;;;;;;5038450;28;20025;-78
2022/08/12 06:58:24;;;;;;;22.60;11.05;;;;;;;;;;5048401;28;20036;-74
2022/08/12 07:00:50;;;;;;;21.17;12.02;;;;;;;;;;5036545;28;20200;-76
2022/08/12 07:03:27;;;;;;;17.33;11.63;;;;;;;;;;5048563;28;20461;-78
2022/08/12 07:05:56;;;;;;;19.90;11.75;;;;;;;;;;5032873;28;20053;-77
2022/08/12 07:08:26;;;;;;;16.27;11.40;;;;;;;;;;5033582;28;20024;-77
2022/08/12 07:11:00;;;;;;;17.85;11.82;;;;;;;;;;5034013;28;20075;-75
2022/08/12 07:13:34;;;;;;;17.85;11.63;;;;;;;;;;5031980;28;20397;-77
2022/08/12 07:16:03;;;;;;;20.55;12.70;;;;;;;;;;5033193;28;20017;-77
2022/08/12 07:18:31;;;;;;;19.50;11.88;;;;;;;;;;5064837;28;20025;-77
2022/08/12 07:21:02;;;;;;;26.40;12.50;;;;;;;;;;5038723;28;20021;-78
2022/08/12 07:23:29;;;;;;;20.50;12.68;;;;;;;;;;5047827;28;20025;-77
2022/08/12 07:25:55;;;;;;;14.50;10.82;;;;;;;;;;5031918;28;20040;-76
2022/08/12 07:28:22;;;;;;;19.77;12.07;;;;;;;;;;5032673;28;20502;-74
2022/08/12 07:30:48;;;;;;;22.80;13.05;;;;;;;;;;5032438;28;20025;-77
2022/08/12 07:33:15;;;;;;;18.40;13.07;;;;;;;;;;5032645;28;20104;-77
2022/08/12 07:35:44;;;;;;;16.85;11.77;;;;;;;;;;5032898;28;20554;-77
2022/08/12 07:38:23;;;;;;;20.48;12.38;;;;;;;;;;5046208;28;20018;-77
2022/08/12 07:40:48;;;;;;;23.50;12.43;;;;;;;;;;5033021;28;20557;-75
2022/08/12 07:43:17;;;;;;;23.42;12.65;;;;;;;;;;5030595;28;20112;-79
2022/08/12 07:45:42;;;;;;;22.00;12.00;;;;;;;;;;5033064;28;20029;-75
2022/08/12 07:48:07;;;;;;;21.65;12.32;;;;;;;;;;5032254;28;20397;-78
2022/08/12 07:50:35;;;;;;;18.45;12.45;;;;;;;;;;5032980;28;20063;-78
2022/08/12 07:53:04;;;;;;;22.48;12.75;;;;;;;;;;5047451;28;20473;-75
2022/08/12 07:55:32;;;;;;;23.83;12.18;;;;;;;;;;5039369;28;20028;-74
2022/08/12 07:57:58;;;;;;;21.70;10.90;;;;;;;;;;5048731;28;20025;-75
2022/08/12 08:00:28;;;;;;;22.02;11.35;;;;;;;;;;5029243;28;20391;-77
2022/08/12 08:02:53;;;;;;;19.58;11.68;;;;;;;;;;5033188;28;20029;-78
2022/08/12 08:05:22;;;;;;;28.50;12.52;;;;;;;;;;5032917;28;20378;-75
2022/08/12 08:07:48;;;;;;;18.70;12.38;;;;;;;;;;5034095;28;20036;-78
2022/08/12 08:10:13;;;;;;;17.75;10.63;;;;;;;;;;5032972;28;20026;-75
2022/08/12 08:12:57;;;;;;;25.65;12.57;;;;;;;;;;5032931;28;20017;-76
2022/08/12 08:15:24;;;;;;;20.55;11.68;;;;;;;;;;5033187;28;20025;-78
2022/08/12 08:17:56;;;;;;;22.20;12.40;;;;;;;;;;5031613;28;20029;-74
2022/08/12 08:20:23;;;;;;;;;;;;;;;;;;5048389;28;20033;-78
2022/08/12 08:22:49;;;;;;;18.50;10.52;;;;;;;;;;5048612;28;19909;-78
2022/08/12 08:25:14;;;;;;;17.35;10.73;;;;;;;;;;5032565;28;20079;-78
2022/08/12 08:27:45;;;;;;;20.13;12.87;;;;;;;;;;5031081;28;20035;-75
2022/08/12 08:30:15;;;;;;;19.75;12.45;;;;;;;;;;5020043;28;20263;-76
2022/08/12 08:32:40;;;;;;;16.45;10.52;;;;;;;;;;5028097;28;20026;-76
2022/08/12 08:35:10;;;;;;;19.83;10.38;;;;;;;;;;5033159;28;20028;-77
2022/08/12 08:37:38;;;;;;;19.02;11.38;;;;;;;;;;5033473;28;20025;-77
2022/08/12 08:42:53;;;;;;;22.88;13.38;;;;;;;;;;5030805;28;20024;-75
2022/08/12 08:45:18;;;;;;;20.08;12.10;;;;;;;;;;5031439;28;20033;-75
2022/08/12 08:47:47;;;;;;;20.03;11.80;;;;;;;;;;5030780;28;20481;-77
2022/08/12 08:50:15;;;;;;;20.15;10.60;;;;;;;;;;5047227;28;20320;-77
2022/08/12 08:52:44;;;;;;;20.88;11.00;;;;;;;;;;5032415;28;20116;-80
2022/08/12 08:55:13;;;;;;;22.02;9.73;;;;;;;;;;5011387;28;20100;-76
2022/08/12 08:57:39;;;;;;;19.10;10.70;;;;;;;;;;5022151;28;20473;-74
2022/08/12 09:00:05;;;;;;;17.88;9.45;;;;;;;;;;5032738;28;20465;-77
2022/08/12 09:02:30;;;;;;;22.95;10.02;;;;;;;;;;5047174;28;20148;-74
2022/08/12 09:04:55;;;;;;;22.75;10.77;;;;;;;;;;5033021;28;20049;-77
2022/08/12 09:07:20;;;;;;;16.67;10.52;;;;;;;;;;5031813;28;20077;-74
2022/08/12 09:09:46;;;;;;;23.67;10.27;;;;;;;;;;5032627;28;20485;-76
2022/08/12 09:14:55;;;;;;;17.65;9.50;;;;;;;;;;5033348;28;20152;-77
2022/08/12 09:17:21;;;;;;;21.30;10.32;;;;;;;;;;5046677;28;20108;-77
2022/08/12 09:19:46;;;;;;;12.60;9.13;;;;;;;;;;5052047;28;20485;-77
2022/08/12 09:22:11;;;;;;;16.80;9.95;;;;;;;;;;5037124;28;20026;-77
2022/08/12 09:24:37;;;;;;;13.30;8.00;;;;;;;;;;5046294;28;20486;-73
2022/08/12 09:27:05;;;;;;;17.92;8.73;;;;;;;;;;5031939;28;20118;-74
2022/08/12 09:29:31;;;;;;;14.35;8.15;;;;;;;;;;5046815;28;20025;-77
2022/08/12 09:31:57;;;;;;;19.35;8.68;;;;;;;;;;5031795;28;20026;-76
2022/08/12 09:34:24;;;;;;;16.80;8.50;;;;;;;;;;5047903;28;20154;-78
2022/08/12 09:36:49;;;;;;;15.43;9.13;;;;;;;;;;5031401;28;20305;-78
2022/08/12 09:39:14;;;;;;;15.30;9.00;;;;;;;;;;5032149;28;20022;-75
2022/08/12 09:41:40;;;;;;;12.45;8.30;;;;;;;;;;5030889;28;20333;-74
2022/08/12 09:46:49;;;;;;;15.15;8.65;;;;;;;;;;5032467;28;20028;-77
2022/08/12 09:49:14;;;;;;;14.95;8.95;;;;;;;;;;5030518;28;20557;-75
2022/08/12 09:51:42;;;;;;;14.13;8.33;;;;;;;;;;5027175;28;20022;-77
2022/08/12 09:54:10;;;;;;;11.13;7.93;;;;;;;;;;5025227;28;20388;-77
2022/08/12 09:56:36;;;;;;;13.75;8.68;;;;;;;;;;5050763;28;20028;-77
2022/08/12 09:59:01;;;;;;;15.88;8.32;;;;;;;;;;5041849;28;20029;-77
2022/08/12 10:01:27;;;;;;;13.90;7.72;;;;;;;;;;5048220;28;20028;-77
2022/08/12 10:03:52;;;;;;;13.00;8.10;;;;;;;;;;5034600;28;20492;-75
2022/08/12 10:06:17;;;;;;;9.80;7.57;;;;;;;;;;5035612;28;20046;-77
2022/08/12 10:08:43;;;;;;;20.67;8.32;;;;;;;;;;5035344;28;20032;-75
2022/08/12 10:13:55;;;;;;;15.68;7.93;;;;;;;;;;5016175;28;20045;-78
2022/08/12 10:16:27;;;;;;;12.10;8.45;;;;;;;;;;5022228;28;20072;-76
2022/08/12 10:19:02;;;;;;;13.02;8.48;;;;;;;;;;5035211;28;20078;-75
2022/08/12 10:21:30;;;;;;;16.90;8.10;;;;;;;;;;5050622;28;20029;-75
2022/08/12 10:23:55;;;;;;;15.95;7.50;;;;;;;;;;5038698;28;20029;-75
2022/08/12 10:31:52;;;;;;;10.43;7.55;;;;;;;;;;5035372;28;20397;-75
2022/08/12 10:34:20;;;;;;;12.93;8.55;;;;;;;;;;5035782;28;20025;-78
2022/08/12 10:36:47;;;;;;;13.55;7.70;;;;;;;;;;5035314;28;20051;-75
2022/08/12 10:39:14;;;;;;;11.00;7.28;;;;;;;;;;5035290;28;20476;-78
2022/08/12 10:44:23;;;;;;;18.13;8.25;;;;;;;;;;5037071;28;20024;-77
2022/08/12 10:46:51;;;;;;;10.75;7.28;;;;;;;;;;5050318;28;20393;-75
2022/08/12 10:49:17;;;;;;;12.73;7.55;;;;;;;;;;5035097;28;20009;-77
2022/08/12 10:51:42;;;;;;;10.75;7.28;;;;;;;;;;5033031;28;20176;-77
2022/08/12 10:54:09;;;;;;;9.97;7.33;;;;;;;;;;5035131;28;20473;-78
2022/08/12 10:56:35;;;;;;;9.43;6.97;;;;;;;;;;5046430;28;20278;-77
2022/08/12 10:59:02;;;;;;;8.82;6.25;;;;;;;;;;5047410;28;20100;-76
2022/08/12 11:01:27;;;;;;;8.65;6.40;;;;;;;;;;5053983;28;20076;-77
2022/08/12 11:03:53;;;;;;;8.90;6.97;;;;;;;;;;5047341;28;20444;-78
2022/08/12 11:06:22;;;;;;;6.75;5.30;;;;;;;;;;5034409;28;20042;-77
2022/08/12 11:08:47;;;;;;;12.80;6.07;;;;;;;;;;5034831;28;20117;-76
2022/08/12 11:11:19;;;;;;;9.18;5.38;;;;;;;;;;5050260;28;20128;-76
2022/08/12 11:13:47;;;;;;;9.57;5.90;;;;;;;;;;5032715;28;20064;-78
2022/08/12 11:16:16;;;;;;;10.52;6.57;;;;;;;;;;5032934;28;20029;-77
2022/08/12 11:18:44;;;;;;;13.93;6.45;;;;;;;;;;5034585;28;20029;-77
2022/08/12 11:21:13;;;;;;;12.55;6.40;;;;;;;;;;5049126;28;20017;-78
2022/08/12 11:23:41;;;;;;;9.15;6.22;;;;;;;;;;5049864;28;20030;-78
2022/08/12 11:26:06;;;;;;;9.93;6.85;;;;;;;;;;5033238;28;20022;-77
2022/08/12 11:28:32;;;;;;;8.05;6.72;;;;;;;;;;5032014;28;20048;-75
2022/08/12 11:30:57;;;;;;;11.15;6.40;;;;;;;;;;5034622;28;20032;-76
2022/08/12 11:33:22;;;;;;;11.85;6.72;;;;;;;;;;5049585;28;20082;-76
2022/08/12 11:35:47;;;;;;;8.45;6.35;;;;;;;;;;5035132;28;20029;-76
2022/08/12 11:38:13;;;;;;;11.07;5.77;;;;;;;;;;5034609;28;20052;-77
2022/08/12 11:40:41;;;;;;;11.13;5.83;;;;;;;;;;5033632;28;20251;-75
2022/08/12 11:43:09;;;;;;;9.63;5.93;;;;;;;;;;5032838;28;20304;-76
2022/08/12 11:45:34;;;;;;;10.27;6.50;;;;;;;;;;5032432;28;20032;-76
2022/08/12 11:48:00;;;;;;;11.07;6.47;;;;;;;;;;5033225;28;20033;-77
2022/08/12 11:50:26;;;;;;;9.95;6.47;;;;;;;;;;5048491;28;20271;-76
2022/08/12 11:52:51;;;;;;;12.50;6.68;;;;;;;;;;5033294;28;20040;-78
2022/08/12 11:55:16;;;;;;;15.00;6.43;;;;;;;;;;5041694;28;20025;-75
2022/08/12 11:57:49;;;;;;;10.18;6.85;;;;;;;;;;5055850;28;20029;-76
2022/08/12 12:00:15;;;;;;;11.25;7.38;;;;;;;;;;5034111;28;20018;-76
2022/08/12 12:02:40;;;;;;;12.07;6.57;;;;;;;;;;5033588;28;20030;-77
2022/08/12 12:05:06;;;;;;;8.88;6.68;;;;;;;;;;5032751;28;20021;-77
2022/08/12 12:07:31;;;;;;;15.60;6.45;;;;;;;;;;5034389;28;20064;-76
2022/08/12 12:09:57;;;;;;;14.40;5.67;;;;;;;;;;5033227;28;20032;-76
2022/08/12 12:12:22;;;;;;;11.88;6.00;;;;;;;;;;5033337;28;20493;-78
2022/08/12 12:14:47;;;;;;;10.68;6.95;;;;;;;;;;5031811;28;20029;-78
2022/08/12 12:17:13;;;;;;;10.37;6.67;;;;;;;;;;5032408;28;20048;-77
2022/08/12 12:19:38;;;;;;;10.18;5.55;;;;;;;;;;5032185;28;20013;-78
2022/08/12 12:22:03;;;;;;;7.97;5.95;;;;;;;;;;5033799;28;20113;-78
2022/08/12 12:24:29;;;;;;;11.37;6.43;;;;;;;;;;5034769;28;20028;-76
2022/08/12 12:26:54;;;;;;;9.23;6.57;;;;;;;;;;5032726;28;20281;-76
2022/08/12 12:29:19;;;;;;;6.80;5.70;;;;;;;;;;5032595;28;20531;-77
2022/08/12 12:31:47;;;;;;;8.33;6.23;;;;;;;;;;5033139;28;20247;-76
2022/08/12 12:34:12;;;;;;;11.45;6.22;;;;;;;;;;5033440;28;20290;-76
2022/08/12 12:36:38;;;;;;;10.30;6.43;;;;;;;;;;5031830;28;20084;-76
2022/08/12 12:39:03;;;;;;;11.23;6.03;;;;;;;;;;5048892;28;20015;-78
2022/08/12 12:41:28;;;;;;;8.60;5.93;;;;;;;;;;5046588;28;20058;-77
2022/08/12 12:43:54;;;;;;;14.25;7.00;;;;;;;;;;5032432;28;20266;-77
2022/08/12 12:46:19;;;;;;;18.20;7.57;;;;;;;;;;5033249;28;20022;-78
2022/08/12 12:48:44;;;;;;;11.23;6.17;;;;;;;;;;5045309;28;20037;-77
2022/08/12 12:51:15;;;;;;;15.07;6.97;;;;;;;;;;5033355;28;20687;-76
2022/08/12 12:53:42;;;;;;;11.00;5.88;;;;;;;;;;5033520;28;20270;-78
2022/08/12 12:56:14;;;;;;;9.65;5.85;;;;;;;;;;5041905;28;20018;-77
2022/08/12 12:58:39;;;;;;;;;;;;;;;;;;5049783;28;20064;-78
2022/08/12 13:01:04;;;;;;;11.45;6.30;;;;;;;;;;5047897;28;19952;-78
2022/08/12 13:03:34;;;;;;;13.15;6.30;;;;;;;;;;5032895;28;20049;-77
2022/08/12 13:05:59;;;;;;;7.57;6.10;;;;;;;;;;5032685;28;20069;-76
2022/08/12 13:08:29;;;;;;;9.75;6.03;;;;;;;;;;5032507;28;20559;-77
2022/08/12 13:10:59;;;;;;;10.73;6.75;;;;;;;;;;5031466;28;20018;-76
2022/08/12 13:13:25;;;;;;;10.65;5.82;;;;;;;;;;5031293;28;20030;-77
2022/08/12 13:15:52;;;;;;;10.27;6.07;;;;;;;;;;5053321;28;20029;-76
2022/08/12 13:18:18;;;;;;;8.35;6.35;;;;;;;;;;5052491;28;20073;-77
2022/08/12 13:20:47;;;;;;;7.55;6.03;;;;;;;;;;5035997;28;20025;-76
2022/08/12 13:23:12;;;;;;;11.32;6.88;;;;;;;;;;5048314;28;20396;-77
2022/08/12 13:25:41;;;;;;;6.70;5.75;;;;;;;;;;5032512;28;20021;-78
2022/08/12 13:28:07;;;;;;;8.88;6.18;;;;;;;;;;5047830;28;20501;-77
2022/08/12 13:30:35;;;;;;;10.30;6.53;;;;;;;;;;5031967;28;20117;-76
2022/08/12 13:33:00;;;;;;;13.98;6.63;;;;;;;;;;5036676;28;20450;-76
2022/08/12 13:35:29;;;;;;;9.15;6.75;;;;;;;;;;5032846;28;20064;-78
2022/08/12 13:37:58;;;;;;;10.88;6.25;;;;;;;;;;5035613;28;20036;-76
2022/08/12 13:40:24;;;;;;;9.20;6.75;;;;;;;;;;5035679;28;20024;-78
2022/08/12 13:42:52;;;;;;;11.77;6.82;;;;;;;;;;5049623;28;20034;-78
2022/08/12 13:45:17;;;;;;;15.73;6.28;;;;;;;;;;5035157;28;20113;-77
2022/08/12 13:47:54;;;;;;;9.57;6.13;;;;;;;;;;5037653;28;20120;-76
2022/08/12 13:50:19;;;;;;;11.32;6.50;;;;;;;;;;5048044;28;20039;-77
2022/08/12 13:52:44;;;;;;;6.53;5.57;;;;;;;;;;5035869;28;20029;-78
2022/08/12 13:55:09;;;;;;;11.97;6.07;;;;;;;;;;5043063;28;20331;-78
2022/08/12 13:57:42;;;;;;;8.63;6.57;;;;;;;;;;5056020;28;20278;-78
2022/08/12 14:00:08;;;;;;;7.75;5.97;;;;;;;;;;5035172;28;20251;-76
2022/08/12 14:02:33;;;;;;;9.88;6.10;;;;;;;;;;5036417;28;20091;-77
2022/08/12 14:04:59;;;;;;;9.73;6.57;;;;;;;;;;5050641;28;20462;-76
2022/08/12 14:07:24;;;;;;;8.70;6.27;;;;;;;;;;5036185;28;20335;-76
2022/08/12 14:12:38;;;;;;;7.07;6.13;;;;;;;;;;5035996;28;20301;-76
2022/08/12 14:15:05;;;;;;;6.60;5.97;;;;;;;;;;5035627;28;20069;-77
2022/08/12 14:17:31;;;;;;;11.10;6.53;;;;;;;;;;5050898;28;20033;-78
2022/08/12 14:20:14;;;;;;;12.82;6.90;;;;;;;;;;5051311;28;20021;-76
2022/08/12 14:22:40;;;;;;;7.38;5.80;;;;;;;;;;5035304;28;20178;-77
2022/08/12 14:25:08;;;;;;;8.17;5.53;;;;;;;;;;5035265;28;20146;-78
2022/08/12 14:27:34;;;;;;;8.05;6.22;;;;;;;;;;5032943;28;20352;-76
2022/08/12 14:30:00;;;;;;;7.32;6.25;;;;;;;;;;5036071;28;20454;-77
2022/08/12 14:32:25;;;;;;;7.97;5.78;;;;;;;;;;5035493;28;20087;-76
2022/08/12 14:34:51;;;;;;;9.77;5.93;;;;;;;;;;5033808;28;20025;-76
2022/08/12 14:37:17;;;;;;;9.48;6.50;;;;;;;;;;5034110;28;20051;-76
2022/08/12 14:39:43;;;;;;;9.68;6.22;;;;;;;;;;5049920;28;20359;-78
2022/08/12 14:42:08;;;;;;;9.77;7.00;;;;;;;;;;5033820;28;20029;-77
2022/08/12 14:44:33;;;;;;;8.97;6.33;;;;;;;;;;5035252;28;20036;-77
2022/08/12 14:46:59;;;;;;;9.90;6.45;;;;;;;;;;5035104;28;20262;-78
2022/08/12 14:49:24;;;;;;;9.80;6.45;;;;;;;;;;5033901;28;20021;-78
2022/08/12 14:51:50;;;;;;;7.18;6.30;;;;;;;;;;5033624;28;20056;-78
2022/08/12 14:54:19;;;;;;;9.48;6.90;;;;;;;;;;5034765;28;20421;-76
2022/08/12 14:56:44;;;;;;;8.77;6.25;;;;;;;;;;5035569;28;20025;-78
2022/08/12 15:01:55;;;;;;;13.43;6.93;;;;;;;;;;5034836;28;21063;-78
2022/08/12 15:04:23;;;;;;;7.78;6.45;;;;;;;;;;5034707;28;20030;-76
2022/08/12 15:06:49;;;;;;;13.02;7.00;;;;;;;;;;5016736;28;20044;-78
2022/08/12 15:09:17;;;;;;;7.03;6.35;;;;;;;;;;5049941;28;20116;-77
2022/08/12 15:11:48;;;;;;;13.70;6.70;;;;;;;;;;5066861;28;20033;-76
2022/08/12 15:14:14;;;;;;;8.32;6.25;;;;;;;;;;5032947;28;20064;-77
2022/08/12 15:16:39;;;;;;;7.32;5.95;;;;;;;;;;5034631;28;20022;-76
2022/08/12 15:19:04;;;;;;;11.05;6.20;;;;;;;;;;5034676;28;20021;-78
2022/08/12 15:21:30;;;;;;;10.07;5.83;;;;;;;;;;5033977;28;20060;-76
2022/08/12 15:23:56;;;;;;;9.50;5.78;;;;;;;;;;5034222;28;20271;-76
2022/08/12 15:26:21;;;;;;;8.73;6.72;;;;;;;;;;5050267;28;20117;-78
2022/08/12 15:28:46;;;;;;;7.90;6.27;;;;;;;;;;5034279;28;20053;-76
2022/08/12 15:31:13;;;;;;;13.15;5.70;;;;;;;;;;5055599;28;20293;-76
2022/08/12 15:33:41;;;;;;;11.93;6.45;;;;;;;;;;5033174;28;20493;-77
2022/08/12 15:36:07;;;;;;;9.13;6.13;;;;;;;;;;5034536;28;20026;-77
2022/08/12 15:38:34;;;;;;;7.43;6.53;;;;;;;;;;5034150;28;20018;-78
2022/08/12 15:40:59;;;;;;;9.60;7.28;;;;;;;;;;5034191;28;20355;-78
2022/08/12 15:43:25;;;;;;;16.98;7.32;;;;;;;;;;5031661;28;20033;-78
2022/08/12 15:45:51;;;;;;;11.45;7.07;;;;;;;;;;5049182;28;20423;-77
2022/08/12 15:48:16;;;;;;;9.43;6.55;;;;;;;;;;5048924;28;20033;-77
2022/08/12 15:50:44;;;;;;;10.25;6.95;;;;;;;;;;5048924;28;20396;-78
2022/08/12 15:53:15;;;;;;;9.35;6.22;;;;;;;;;;5034221;28;20510;-78
2022/08/12 15:55:41;;;;;;;12.07;6.97;;;;;;;;;;5042715;28;20493;-77
2022/08/12 15:58:07;;;;;;;14.18;8.38;;;;;;;;;;5040949;28;20025;-77
2022/08/12 16:00:32;;;;;;;11.32;6.93;;;;;;;;;;5032708;28;20014;-76
2022/08/12 16:03:01;;;;;;;8.53;6.93;;;;;;;;;;5047524;28;20591;-76
2022/08/12 16:05:31;;;;;;;9.65;7.07;;;;;;;;;;5040159;28;20278;-76
2022/08/12 16:07:57;;;;;;;9.95;6.35;;;;;;;;;;5032590;28;20041;-76
2022/08/12 16:10:23;;;;;;;13.02;7.20;;;;;;;;;;5031881;28;20044;-77
2022/08/12 16:12:50;;;;;;;8.70;6.10;;;;;;;;;;5031908;28;20047;-76
2022/08/12 16:15:16;;;;;;;13.40;5.93;;;;;;;;;;5032573;28;20040;-76
2022/08/12 16:17:45;;;;;;;9.70;6.18;;;;;;;;;;5047092;28;20061;-77
2022/08/12 16:20:19;;;;;;;10.52;6.50;;;;;;;;;;5034981;28;20040;-78
2022/08/12 16:22:46;;;;;;;11.73;5.80;;;;;;;;;;5030316;28;20033;-76